Time;durP1;ratioP1;P1;durP2;ratioP2;P2;SDS_P1;SDS_P2;PMS_P1;PMS_P2;Temp;Humidity;BMP_temperature;BMP_pressure;BME280_temperature;BME280_humidity;BME280_pressure;Samples;Min_cycle;Max_cycle;Signal;HPM_P1;HPM_P2
2024/01/22 00:00:05;;;;;;;16.53;12.40;;;;;;;;;;5043387;28;20206;-81
2024/01/22 00:02:38;;;;;;;20.47;15.10;;;;;;;;;;5033593;28;20280;-79
2024/01/22 00:05:05;;;;;;;19.97;14.67;;;;;;;;;;5049409;28;20571;-82
2024/01/22 00:07:31;;;;;;;21.33;14.50;;;;;;;;;;5040821;28;20205;-81
2024/01/22 00:09:58;;;;;;;20.50;15.87;;;;;;;;;;5033303;28;20392;-81
2024/01/22 00:12:25;;;;;;;20.03;15.27;;;;;;;;;;5029552;28;20190;-81
2024/01/22 00:14:51;;;;;;;20.93;13.73;;;;;;;;;;5035654;28;20240;-82
2024/01/22 00:17:18;;;;;;;22.00;14.20;;;;;;;;;;5033709;28;20268;-80
2024/01/22 00:19:45;;;;;;;18.00;13.10;;;;;;;;;;5026153;28;20202;-81
2024/01/22 00:22:12;;;;;;;17.80;13.20;;;;;;;;;;5028720;28;20226;-80
2024/01/22 00:24:39;;;;;;;17.27;13.00;;;;;;;;;;5047641;28;20204;-81
2024/01/22 00:27:06;;;;;;;19.00;12.83;;;;;;;;;;5055847;28;20194;-80
2024/01/22 00:29:32;;;;;;;17.77;13.40;;;;;;;;;;5037960;28;20201;-81
2024/01/22 00:31:59;;;;;;;17.63;12.90;;;;;;;;;;5031736;28;20199;-80
2024/01/22 00:34:25;;;;;;;18.47;13.43;;;;;;;;;;5042874;28;20244;-80
2024/01/22 00:36:52;;;;;;;17.67;13.57;;;;;;;;;;5036262;28;20197;-81
2024/01/22 00:39:19;;;;;;;18.13;14.33;;;;;;;;;;5038369;28;20232;-80
2024/01/22 00:41:45;;;;;;;19.03;13.33;;;;;;;;;;5051732;28;20208;-80
2024/01/22 00:44:12;;;;;;;17.57;13.10;;;;;;;;;;5035654;28;20177;-79
2024/01/22 00:46:38;;;;;;;17.23;11.97;;;;;;;;;;5038776;28;20219;-81
2024/01/22 00:49:05;;;;;;;17.13;12.70;;;;;;;;;;5026306;28;20275;-79
2024/01/22 00:51:33;;;;;;;18.03;13.10;;;;;;;;;;5055730;28;20290;-79
2024/01/22 00:54:00;;;;;;;18.73;12.77;;;;;;;;;;5049177;28;20268;-81
2024/01/22 00:56:27;;;;;;;17.77;12.70;;;;;;;;;;5039538;28;20258;-81
2024/01/22 00:58:53;;;;;;;17.63;13.23;;;;;;;;;;5037815;28;20221;-80
2024/01/22 01:01:20;;;;;;;18.80;13.07;;;;;;;;;;5020708;28;20245;-81
2024/01/22 01:03:47;;;;;;;17.47;12.63;;;;;;;;;;5033864;28;20870;-80
2024/01/22 01:06:14;;;;;;;18.77;13.00;;;;;;;;;;5039985;28;20178;-79
2024/01/22 01:08:41;;;;;;;16.43;11.97;;;;;;;;;;5023549;28;20719;-80
2024/01/22 01:11:08;;;;;;;17.70;12.83;;;;;;;;;;5023877;28;20193;-80
2024/01/22 01:13:34;;;;;;;19.20;13.10;;;;;;;;;;5047652;28;20212;-79
2024/01/22 01:16:01;;;;;;;18.43;13.67;;;;;;;;;;5040860;28;20193;-81
2024/01/22 01:18:27;;;;;;;18.53;13.80;;;;;;;;;;5040599;28;20704;-79
2024/01/22 01:20:54;;;;;;;18.47;12.90;;;;;;;;;;5040865;28;20202;-80
2024/01/22 01:23:21;;;;;;;19.13;13.13;;;;;;;;;;5051294;28;20201;-80
2024/01/22 01:25:48;;;;;;;19.10;13.27;;;;;;;;;;5069029;28;20213;-80
2024/01/22 01:28:14;;;;;;;18.60;13.97;;;;;;;;;;5040294;28;20198;-79
2024/01/22 01:30:41;;;;;;;17.43;13.13;;;;;;;;;;5041374;28;20251;-80
2024/01/22 01:33:08;;;;;;;17.50;13.23;;;;;;;;;;5039566;28;20198;-80
2024/01/22 01:35:34;;;;;;;19.83;14.37;;;;;;;;;;5060941;28;20186;-81
2024/01/22 01:38:01;;;;;;;20.10;13.87;;;;;;;;;;5042303;28;20294;-81
2024/01/22 01:40:28;;;;;;;22.57;14.67;;;;;;;;;;5033291;28;20263;-79
2024/01/22 01:42:55;;;;;;;19.23;13.63;;;;;;;;;;5029235;28;20197;-79
2024/01/22 01:45:21;;;;;;;17.63;13.50;;;;;;;;;;5047620;28;20186;-79
2024/01/22 01:47:49;;;;;;;20.77;13.70;;;;;;;;;;5051377;28;20197;-80
2024/01/22 01:50:17;;;;;;;19.63;13.77;;;;;;;;;;5075495;28;20225;-79
2024/01/22 01:52:43;;;;;;;20.47;13.70;;;;;;;;;;5042492;28;20178;-80
2024/01/22 01:55:11;;;;;;;19.27;13.40;;;;;;;;;;5040515;28;20267;-80
2024/01/22 01:57:42;;;;;;;17.53;13.63;;;;;;;;;;5041418;28;20267;-81
2024/01/22 02:00:16;;;;;;;21.07;16.47;;;;;;;;;;5042306;28;20182;-80
2024/01/22 02:02:43;;;;;;;24.57;17.93;;;;;;;;;;5041725;28;20182;-79
2024/01/22 02:05:13;;;;;;;19.30;15.87;;;;;;;;;;5024738;28;20201;-79
2024/01/22 02:07:40;;;;;;;21.63;16.03;;;;;;;;;;5058440;28;20200;-79
2024/01/22 02:10:10;;;;;;;20.90;16.27;;;;;;;;;;5041458;28;20198;-78
2024/01/22 02:12:37;;;;;;;20.73;15.23;;;;;;;;;;5041455;28;20197;-80
2024/01/22 02:15:04;;;;;;;17.97;14.03;;;;;;;;;;5059273;28;20186;-80
2024/01/22 02:17:31;;;;;;;20.33;14.27;;;;;;;;;;5041468;28;20213;-79
2024/01/22 02:19:59;;;;;;;18.87;14.37;;;;;;;;;;5041609;28;20192;-79
2024/01/22 02:22:25;;;;;;;19.77;13.97;;;;;;;;;;5041837;28;20173;-79
2024/01/22 02:24:52;;;;;;;20.60;14.10;;;;;;;;;;5041930;28;20319;-78
2024/01/22 02:27:20;;;;;;;19.30;14.60;;;;;;;;;;5041112;28;20197;-80
2024/01/22 02:29:47;;;;;;;18.30;13.90;;;;;;;;;;5041057;28;20228;-79
2024/01/22 02:32:14;;;;;;;19.63;14.43;;;;;;;;;;5042413;28;20193;-81
2024/01/22 02:34:40;;;;;;;21.33;14.33;;;;;;;;;;5042074;28;20210;-79
2024/01/22 02:37:07;;;;;;;20.50;14.60;;;;;;;;;;5059479;28;20189;-79
2024/01/22 02:39:36;;;;;;;18.23;13.67;;;;;;;;;;5042133;28;20677;-78
2024/01/22 02:42:02;;;;;;;17.47;13.10;;;;;;;;;;5041135;28;20185;-79
2024/01/22 02:44:29;;;;;;;18.60;13.93;;;;;;;;;;5040999;28;20194;-80
2024/01/22 02:46:57;;;;;;;20.00;13.83;;;;;;;;;;5041130;28;20181;-79
2024/01/22 02:49:23;;;;;;;21.07;14.10;;;;;;;;;;5017466;28;20272;-79
2024/01/22 02:51:50;;;;;;;19.30;13.53;;;;;;;;;;5044001;28;20237;-79
2024/01/22 02:54:17;;;;;;;20.67;13.80;;;;;;;;;;5039758;28;20201;-79
2024/01/22 02:56:44;;;;;;;19.17;13.23;;;;;;;;;;5040616;28;20201;-80
2024/01/22 02:59:11;;;;;;;20.20;13.57;;;;;;;;;;5047080;28;20297;-81
2024/01/22 03:01:38;;;;;;;20.17;13.90;;;;;;;;;;5055535;28;20202;-79
2024/01/22 03:04:04;;;;;;;22.27;14.27;;;;;;;;;;5055481;28;20240;-79
2024/01/22 03:06:31;;;;;;;23.27;14.70;;;;;;;;;;5039144;28;20197;-81
2024/01/22 03:08:58;;;;;;;21.13;14.03;;;;;;;;;;5038345;28;20643;-79
2024/01/22 03:11:25;;;;;;;20.90;14.33;;;;;;;;;;5046321;28;20230;-80
2024/01/22 03:13:52;;;;;;;18.80;13.50;;;;;;;;;;5058591;28;20200;-80
2024/01/22 03:16:18;;;;;;;20.20;13.03;;;;;;;;;;5038898;28;20225;-79
2024/01/22 03:18:45;;;;;;;19.60;13.53;;;;;;;;;;5039052;28;20716;-79
2024/01/22 03:21:12;;;;;;;20.30;13.47;;;;;;;;;;5049139;28;20275;-80
2024/01/22 03:23:40;;;;;;;22.77;14.47;;;;;;;;;;5058473;28;20232;-79
2024/01/22 03:26:06;;;;;;;21.47;14.10;;;;;;;;;;5061457;28;20223;-80
2024/01/22 03:28:33;;;;;;;19.37;13.60;;;;;;;;;;5063399;28;20197;-79
2024/01/22 03:31:00;;;;;;;19.87;13.37;;;;;;;;;;5044493;28;20209;-80
2024/01/22 03:33:27;;;;;;;18.67;13.13;;;;;;;;;;5040034;28;20256;-82
2024/01/22 03:35:54;;;;;;;21.83;13.97;;;;;;;;;;5050267;28;20193;-79
2024/01/22 03:38:21;;;;;;;21.23;14.13;;;;;;;;;;5038434;28;20209;-79
2024/01/22 03:40:47;;;;;;;19.07;12.43;;;;;;;;;;5057807;28;20202;-80
2024/01/22 03:43:14;;;;;;;19.27;13.43;;;;;;;;;;5057969;28;20194;-80
2024/01/22 03:45:41;;;;;;;17.80;12.53;;;;;;;;;;5057534;28;20217;-80
2024/01/22 03:48:08;;;;;;;21.90;14.10;;;;;;;;;;5040517;28;20228;-80
2024/01/22 03:50:35;;;;;;;21.10;13.17;;;;;;;;;;5039503;28;20295;-79
2024/01/22 03:53:02;;;;;;;19.83;13.90;;;;;;;;;;5034325;28;20630;-79
2024/01/22 03:55:28;;;;;;;18.07;12.83;;;;;;;;;;5028432;28;20224;-80
2024/01/22 03:57:55;;;;;;;19.10;12.90;;;;;;;;;;5040494;28;20713;-81
2024/01/22 04:00:22;;;;;;;19.40;13.33;;;;;;;;;;5040365;28;20666;-79
2024/01/22 04:02:50;;;;;;;22.13;13.80;;;;;;;;;;5058014;28;20194;-80
2024/01/22 04:05:16;;;;;;;18.70;14.20;;;;;;;;;;5056935;28;20184;-80
2024/01/22 04:07:43;;;;;;;18.33;13.30;;;;;;;;;;5024501;28;20193;-80
2024/01/22 04:10:10;;;;;;;20.00;13.60;;;;;;;;;;5041290;28;20197;-80
2024/01/22 04:12:37;;;;;;;20.27;13.13;;;;;;;;;;5041438;28;20205;-80
2024/01/22 04:15:04;;;;;;;19.03;13.10;;;;;;;;;;5041754;28;20197;-80
2024/01/22 04:17:31;;;;;;;17.50;12.67;;;;;;;;;;5056581;28;20277;-79
2024/01/22 04:19:58;;;;;;;18.37;12.97;;;;;;;;;;5054993;28;20256;-78
2024/01/22 04:22:24;;;;;;;18.50;12.77;;;;;;;;;;5044774;28;20197;-79
2024/01/22 04:24:51;;;;;;;20.07;13.80;;;;;;;;;;5054157;28;20206;-79
2024/01/22 04:27:17;;;;;;;18.73;13.53;;;;;;;;;;5057644;28;20658;-80
2024/01/22 04:29:44;;;;;;;20.27;13.57;;;;;;;;;;5049782;28;20202;-79
2024/01/22 04:32:14;;;;;;;18.00;12.83;;;;;;;;;;5039561;28;20198;-81
2024/01/22 04:34:41;;;;;;;17.17;13.67;;;;;;;;;;5039927;28;20221;-81
2024/01/22 04:37:09;;;;;;;20.13;14.00;;;;;;;;;;5045245;28;20193;-81
2024/01/22 04:39:38;;;;;;;18.70;13.60;;;;;;;;;;5043853;28;20296;-81
2024/01/22 04:42:05;;;;;;;17.13;12.97;;;;;;;;;;5034733;28;20620;-80
2024/01/22 04:44:31;;;;;;;19.43;13.10;;;;;;;;;;5026797;28;20209;-79
2024/01/22 04:46:58;;;;;;;18.63;13.17;;;;;;;;;;5053476;28;20236;-79
2024/01/22 04:49:26;;;;;;;21.30;13.17;;;;;;;;;;5061672;28;20201;-80
2024/01/22 04:51:55;;;;;;;19.10;13.20;;;;;;;;;;5055825;28;20288;-81
2024/01/22 04:54:22;;;;;;;19.03;12.73;;;;;;;;;;5037730;28;20197;-81
2024/01/22 04:56:48;;;;;;;21.17;12.97;;;;;;;;;;5021118;28;20696;-80
2024/01/22 04:59:15;;;;;;;18.40;12.60;;;;;;;;;;5037749;28;20253;-80
2024/01/22 05:01:42;;;;;;;20.03;13.43;;;;;;;;;;5037462;28;20279;-79
2024/01/22 05:04:09;;;;;;;20.10;13.57;;;;;;;;;;5055210;28;20177;-79
2024/01/22 05:06:35;;;;;;;19.13;13.07;;;;;;;;;;5055066;28;20185;-80
2024/01/22 05:09:04;;;;;;;18.60;12.97;;;;;;;;;;5037409;28;20194;-80
2024/01/22 05:11:31;;;;;;;20.10;13.17;;;;;;;;;;5054950;28;20189;-80
2024/01/22 05:13:57;;;;;;;18.80;12.87;;;;;;;;;;5055146;28;20232;-81
2024/01/22 05:16:24;;;;;;;20.13;12.93;;;;;;;;;;5037375;28;20772;-79
2024/01/22 05:18:52;;;;;;;18.37;12.67;;;;;;;;;;5037430;28;20206;-80
2024/01/22 05:21:21;;;;;;;18.27;13.87;;;;;;;;;;5037620;28;20546;-79
2024/01/22 05:23:49;;;;;;;28.90;22.63;;;;;;;;;;5037173;28;20194;-79
2024/01/22 05:26:16;;;;;;;22.83;18.40;;;;;;;;;;5054761;28;20193;-80
2024/01/22 05:28:42;;;;;;;23.83;16.57;;;;;;;;;;5036977;28;20232;-80
2024/01/22 05:31:09;;;;;;;21.07;13.73;;;;;;;;;;5037363;28;20201;-81
2024/01/22 05:33:35;;;;;;;21.37;12.97;;;;;;;;;;5020493;28;20720;-79
2024/01/22 05:36:05;;;;;;;18.43;12.60;;;;;;;;;;5037449;28;20202;-79
2024/01/22 05:38:31;;;;;;;19.13;12.83;;;;;;;;;;5054591;28;20212;-79
2024/01/22 05:40:58;;;;;;;17.97;12.73;;;;;;;;;;5036755;28;20193;-81
2024/01/22 05:43:25;;;;;;;22.07;14.80;;;;;;;;;;5037346;28;20208;-80
2024/01/22 05:45:51;;;;;;;21.83;14.97;;;;;;;;;;5036288;28;20197;-80
2024/01/22 05:48:20;;;;;;;23.03;14.63;;;;;;;;;;5055109;28;20192;-80
2024/01/22 05:50:47;;;;;;;22.87;14.47;;;;;;;;;;5054975;28;20221;-81
2024/01/22 05:53:14;;;;;;;20.50;13.80;;;;;;;;;;5037083;28;20189;-79
2024/01/22 05:55:40;;;;;;;19.40;13.60;;;;;;;;;;5054597;28;20182;-78
2024/01/22 05:58:07;;;;;;;18.97;13.83;;;;;;;;;;5054331;28;20194;-80
2024/01/22 06:00:34;;;;;;;20.23;13.53;;;;;;;;;;5054413;28;20260;-80
2024/01/22 06:03:00;;;;;;;19.43;13.07;;;;;;;;;;5036493;28;20193;-78
2024/01/22 06:05:27;;;;;;;19.37;13.37;;;;;;;;;;5036231;28;20293;-80
2024/01/22 06:07:54;;;;;;;19.93;12.93;;;;;;;;;;5054227;28;20208;-80
2024/01/22 06:10:21;;;;;;;18.23;12.07;;;;;;;;;;5054529;28;20212;-78
2024/01/22 06:12:48;;;;;;;18.70;12.20;;;;;;;;;;5036805;28;20182;-79
2024/01/22 06:15:15;;;;;;;19.03;14.17;;;;;;;;;;5036848;28;20193;-79
2024/01/22 06:17:42;;;;;;;21.87;13.90;;;;;;;;;;5054234;28;20273;-79
2024/01/22 06:20:09;;;;;;;21.40;13.90;;;;;;;;;;5054481;28;20247;-80
2024/01/22 06:22:36;;;;;;;20.47;13.27;;;;;;;;;;5054268;28;20273;-80
2024/01/22 06:25:04;;;;;;;19.00;13.10;;;;;;;;;;5036468;28;20275;-78
2024/01/22 06:27:30;;;;;;;23.23;14.17;;;;;;;;;;5054644;28;20188;-78
2024/01/22 06:29:59;;;;;;;21.27;14.10;;;;;;;;;;5036932;28;20189;-79
2024/01/22 06:32:26;;;;;;;25.13;14.73;;;;;;;;;;5037187;28;20182;-79
2024/01/22 06:34:56;;;;;;;24.47;15.27;;;;;;;;;;5036102;28;20196;-81
2024/01/22 06:37:24;;;;;;;23.63;15.10;;;;;;;;;;5020457;28;20213;-81
2024/01/22 06:39:50;;;;;;;21.77;13.87;;;;;;;;;;5054691;28;20206;-81
2024/01/22 06:42:17;;;;;;;21.13;13.83;;;;;;;;;;5036620;28;20190;-81
2024/01/22 06:44:57;;;;;;;22.87;14.67;;;;;;;;;;5054818;28;20228;-81
2024/01/22 06:47:24;;;;;;;25.47;16.03;;;;;;;;;;5037259;28;20192;-82
2024/01/22 06:49:52;;;;;;;24.63;16.43;;;;;;;;;;5019869;28;20217;-80
2024/01/22 06:52:20;;;;;;;25.33;16.37;;;;;;;;;;5043595;28;20182;-82
2024/01/22 06:54:46;;;;;;;24.10;15.23;;;;;;;;;;5037097;28;20252;-82
2024/01/22 06:57:13;;;;;;;23.00;14.27;;;;;;;;;;5048618;28;20209;-80
2024/01/22 06:59:40;;;;;;;21.93;14.50;;;;;;;;;;5041529;28;20202;-77
2024/01/22 07:02:06;;;;;;;22.50;15.97;;;;;;;;;;5024943;28;20190;-81
2024/01/22 07:04:33;;;;;;;25.70;16.90;;;;;;;;;;5025720;28;20194;-79
2024/01/22 07:07:00;;;;;;;22.67;16.77;;;;;;;;;;5036886;28;20205;-81
2024/01/22 07:09:28;;;;;;;20.07;14.50;;;;;;;;;;5022461;28;20248;-82
2024/01/22 07:11:55;;;;;;;19.97;14.80;;;;;;;;;;5039586;28;20663;-80
2024/01/22 07:14:23;;;;;;;25.73;15.63;;;;;;;;;;5019099;28;20206;-80
2024/01/22 07:16:49;;;;;;;23.23;16.10;;;;;;;;;;5022461;28;20201;-80
2024/01/22 07:19:16;;;;;;;21.57;14.57;;;;;;;;;;5046575;28;20209;-79
2024/01/22 07:21:44;;;;;;;24.10;14.90;;;;;;;;;;5034691;28;20205;-79
2024/01/22 07:24:11;;;;;;;21.80;13.97;;;;;;;;;;5044945;28;20244;-80
2024/01/22 07:26:37;;;;;;;19.97;13.33;;;;;;;;;;5033680;28;20202;-80
2024/01/22 07:29:04;;;;;;;20.37;13.60;;;;;;;;;;5035055;28;20655;-79
2024/01/22 07:31:31;;;;;;;22.07;13.83;;;;;;;;;;5019463;28;20198;-79
2024/01/22 07:33:57;;;;;;;19.33;13.70;;;;;;;;;;5038068;28;20309;-79
2024/01/22 07:36:24;;;;;;;21.23;14.30;;;;;;;;;;5025197;28;20271;-80
2024/01/22 07:38:54;;;;;;;22.40;14.93;;;;;;;;;;5051172;28;20221;-81
2024/01/22 07:41:21;;;;;;;27.33;17.70;;;;;;;;;;5006369;28;20228;-80
2024/01/22 07:43:48;;;;;;;24.43;15.73;;;;;;;;;;5019424;28;20599;-81
2024/01/22 07:46:14;;;;;;;19.83;15.03;;;;;;;;;;5028546;28;20210;-80
2024/01/22 07:48:41;;;;;;;20.67;14.87;;;;;;;;;;5019422;28;20211;-78
2024/01/22 07:51:08;;;;;;;23.43;15.27;;;;;;;;;;5026397;28;20245;-81
2024/01/22 07:53:35;;;;;;;22.93;15.87;;;;;;;;;;5035192;28;20607;-80
2024/01/22 07:56:02;;;;;;;21.47;15.03;;;;;;;;;;5024551;28;20205;-80
2024/01/22 07:58:29;;;;;;;22.70;15.63;;;;;;;;;;5024729;28;20207;-82
2024/01/22 08:00:55;;;;;;;22.67;16.13;;;;;;;;;;5003038;28;20221;-81
2024/01/22 08:03:22;;;;;;;22.63;15.67;;;;;;;;;;5019182;28;20194;-79
2024/01/22 08:05:49;;;;;;;21.50;15.50;;;;;;;;;;5013637;28;20679;-81
2024/01/22 08:08:16;;;;;;;23.43;16.17;;;;;;;;;;5036346;28;20276;-79
2024/01/22 08:10:42;;;;;;;23.20;17.00;;;;;;;;;;5025804;28;20205;-80
2024/01/22 08:13:10;;;;;;;22.27;15.77;;;;;;;;;;5025402;28;20280;-78
2024/01/22 08:15:37;;;;;;;24.27;16.10;;;;;;;;;;5020531;28;20194;-81
2024/01/22 08:18:03;;;;;;;23.90;16.23;;;;;;;;;;5021022;28;20210;-80
2024/01/22 08:20:30;;;;;;;24.40;16.73;;;;;;;;;;5022471;28;20249;-81
2024/01/22 08:23:00;;;;;;;23.00;16.20;;;;;;;;;;5020457;28;20209;-82
2024/01/22 08:25:29;;;;;;;22.93;17.07;;;;;;;;;;5020705;28;20202;-81
2024/01/22 08:27:58;;;;;;;26.57;18.13;;;;;;;;;;5032416;28;20205;-82
2024/01/22 08:30:25;;;;;;;25.23;17.77;;;;;;;;;;5040941;28;20251;-82
2024/01/22 08:32:52;;;;;;;24.27;17.93;;;;;;;;;;5019127;28;20743;-81
2024/01/22 08:35:19;;;;;;;25.57;18.63;;;;;;;;;;5025158;28;20224;-82
2024/01/22 08:37:50;;;;;;;26.03;18.63;;;;;;;;;;5021958;28;20205;-80
2024/01/22 08:40:21;;;;;;;27.17;19.63;;;;;;;;;;5018196;28;20272;-82
2024/01/22 08:42:49;;;;;;;24.17;18.33;;;;;;;;;;5021754;28;20193;-79
2024/01/22 08:45:16;;;;;;;24.77;18.23;;;;;;;;;;5027778;28;20209;-83
2024/01/22 08:47:46;;;;;;;24.57;18.37;;;;;;;;;;5023365;28;20226;-82
2024/01/22 08:50:17;;;;;;;24.80;18.23;;;;;;;;;;5022434;28;20252;-80
2024/01/22 08:52:48;;;;;;;24.57;18.83;;;;;;;;;;5001024;28;20257;-83
2024/01/22 08:55:15;;;;;;;24.90;17.83;;;;;;;;;;5020576;28;20202;-81
2024/01/22 08:57:42;;;;;;;24.53;18.20;;;;;;;;;;5033820;28;20283;-81
2024/01/22 09:00:13;;;;;;;24.70;17.77;;;;;;;;;;5026961;28;20221;-81
2024/01/22 09:02:41;;;;;;;22.73;17.00;;;;;;;;;;5002888;28;20201;-79
2024/01/22 09:05:08;;;;;;;25.77;17.40;;;;;;;;;;5032441;28;20210;-80
2024/01/22 09:07:34;;;;;;;22.03;17.57;;;;;;;;;;5031036;28;20200;-82
2024/01/22 09:10:06;;;;;;;24.17;16.80;;;;;;;;;;5021827;28;20206;-80
2024/01/22 09:12:33;;;;;;;23.97;17.57;;;;;;;;;;5025147;28;20221;-82
2024/01/22 09:15:00;;;;;;;22.00;16.60;;;;;;;;;;5036927;28;20279;-80
2024/01/22 09:17:27;;;;;;;22.00;16.57;;;;;;;;;;5039484;28;20681;-82
2024/01/22 09:19:54;;;;;;;20.80;16.53;;;;;;;;;;5015045;28;20257;-82
2024/01/22 09:22:21;;;;;;;23.53;16.67;;;;;;;;;;5004519;28;20202;-81
2024/01/22 09:24:47;;;;;;;21.17;16.80;;;;;;;;;;5034722;28;20213;-82
2024/01/22 09:27:14;;;;;;;22.27;17.23;;;;;;;;;;5013174;28;20203;-80
2024/01/22 09:29:41;;;;;;;20.23;16.97;;;;;;;;;;5028921;28;20206;-84
2024/01/22 09:32:11;;;;;;;23.87;16.70;;;;;;;;;;5036069;28;20202;-81
2024/01/22 09:34:38;;;;;;;21.33;16.03;;;;;;;;;;5027527;28;20336;-82
2024/01/22 09:37:06;;;;;;;20.13;15.53;;;;;;;;;;5039152;28;20202;-81
2024/01/22 09:39:32;;;;;;;21.40;16.13;;;;;;;;;;5018957;28;20232;-80
2024/01/22 09:41:59;;;;;;;18.40;15.17;;;;;;;;;;5022655;28;20220;-79
2024/01/22 09:44:26;;;;;;;19.30;15.97;;;;;;;;;;5030734;28;20194;-82
2024/01/22 09:46:53;;;;;;;19.07;15.50;;;;;;;;;;5021848;28;20205;-82
2024/01/22 09:49:20;;;;;;;19.17;15.50;;;;;;;;;;5023496;28;20233;-86
2024/01/22 09:51:47;;;;;;;22.00;16.23;;;;;;;;;;5068977;28;20260;-81
2024/01/22 09:54:18;;;;;;;21.90;15.57;;;;;;;;;;5035735;28;20216;-81
2024/01/22 09:56:56;;;;;;;19.13;15.53;;;;;;;;;;5035269;28;20248;-81
2024/01/22 09:59:24;;;;;;;23.43;15.23;;;;;;;;;;5029547;28;20196;-81
2024/01/22 10:01:52;;;;;;;20.40;15.27;;;;;;;;;;5030044;28;20194;-82
2024/01/22 10:04:19;;;;;;;20.07;14.93;;;;;;;;;;5048775;28;20256;-81
2024/01/22 10:06:48;;;;;;;17.60;14.80;;;;;;;;;;5038297;28;20204;-81
2024/01/22 10:09:15;;;;;;;19.93;15.53;;;;;;;;;;5052668;28;20204;-83
2024/01/22 10:11:45;;;;;;;20.13;15.17;;;;;;;;;;5048072;28;20251;-81
2024/01/22 10:14:12;;;;;;;17.70;14.30;;;;;;;;;;5035359;28;20296;-83
2024/01/22 10:16:39;;;;;;;18.37;14.67;;;;;;;;;;5037504;28;20194;-81
2024/01/22 10:19:07;;;;;;;18.00;14.50;;;;;;;;;;5036758;28;20236;-81
2024/01/22 10:21:35;;;;;;;19.17;14.50;;;;;;;;;;5034200;28;20418;-80
2024/01/22 10:24:03;;;;;;;16.70;14.60;;;;;;;;;;5021029;28;20209;-80
2024/01/22 10:26:30;;;;;;;18.60;14.97;;;;;;;;;;5053243;28;20258;-82
2024/01/22 10:29:18;;;;;;;17.77;14.50;;;;;;;;;;5027447;28;20197;-82
2024/01/22 10:31:57;;;;;;;19.00;14.10;;;;;;;;;;5050454;28;20205;-80
2024/01/22 10:34:25;;;;;;;18.93;14.00;;;;;;;;;;5038281;28;20193;-80
2024/01/22 10:37:08;;;;;;;19.57;14.40;;;;;;;;;;5032335;28;20285;-82
2024/01/22 10:39:36;;;;;;;15.30;13.07;;;;;;;;;;5050415;28;20210;-80
2024/01/22 10:42:09;;;;;;;18.70;14.07;;;;;;;;;;5033718;28;20190;-81
2024/01/22 10:44:41;;;;;;;16.87;13.50;;;;;;;;;;5057078;28;20189;-81
2024/01/22 10:47:09;;;;;;;16.90;13.17;;;;;;;;;;5054404;28;20208;-79
2024/01/22 10:49:36;;;;;;;16.30;13.20;;;;;;;;;;5036514;28;20305;-81
2024/01/22 10:52:05;;;;;;;18.23;13.60;;;;;;;;;;5030285;28;20721;-79
2024/01/22 10:54:34;;;;;;;18.97;14.00;;;;;;;;;;5021151;28;20209;-83
2024/01/22 10:57:11;;;;;;;16.53;13.40;;;;;;;;;;5034368;28;20201;-82
2024/01/22 10:59:41;;;;;;;19.23;14.43;;;;;;;;;;5054579;28;20285;-81
2024/01/22 11:02:16;;;;;;;21.97;16.70;;;;;;;;;;5038458;28;20201;-83
2024/01/22 11:04:44;;;;;;;21.70;15.27;;;;;;;;;;5039068;28;20208;-81
2024/01/22 11:07:12;;;;;;;17.07;13.70;;;;;;;;;;5052988;28;20292;-79
2024/01/22 11:09:39;;;;;;;16.03;12.80;;;;;;;;;;5012403;28;20203;-81
2024/01/22 11:12:11;;;;;;;15.60;12.57;;;;;;;;;;5029550;28;20229;-81
2024/01/22 11:14:41;;;;;;;16.13;13.10;;;;;;;;;;5028956;28;20225;-81
2024/01/22 11:17:09;;;;;;;18.97;13.83;;;;;;;;;;5036669;28;20228;-80
2024/01/22 11:19:36;;;;;;;18.20;13.03;;;;;;;;;;5032148;28;20271;-81
2024/01/22 11:22:19;;;;;;;16.03;12.43;;;;;;;;;;5035991;28;20202;-80
2024/01/22 11:24:59;;;;;;;16.50;12.33;;;;;;;;;;5050160;28;20229;-79
2024/01/22 11:27:52;;;;;;;15.27;12.13;;;;;;;;;;5036858;28;20193;-79
2024/01/22 11:30:21;;;;;;;16.03;12.70;;;;;;;;;;5035915;28;20658;-81
2024/01/22 11:32:48;;;;;;;15.50;12.40;;;;;;;;;;5037280;28;20225;-79
2024/01/22 11:35:34;;;;;;;14.83;12.30;;;;;;;;;;5019472;28;20209;-83
2024/01/22 11:38:03;;;;;;;15.40;12.50;;;;;;;;;;5035520;28;20206;-81
2024/01/22 11:40:52;;;;;;;16.07;12.67;;;;;;;;;;5036593;28;20221;-81
2024/01/22 11:43:20;;;;;;;14.43;12.17;;;;;;;;;;5052914;28;20213;-80
2024/01/22 11:45:50;;;;;;;14.80;12.23;;;;;;;;;;5037437;28;20284;-81
2024/01/22 11:48:22;;;;;;;15.70;12.63;;;;;;;;;;5057016;28;20209;-83
2024/01/22 11:50:57;;;;;;;17.80;12.60;;;;;;;;;;5039712;28;20232;-80
2024/01/22 11:53:25;;;;;;;14.27;12.77;;;;;;;;;;5057337;28;20188;-79
2024/01/22 11:56:01;;;;;;;15.37;11.83;;;;;;;;;;5032906;28;20190;-81
2024/01/22 11:58:29;;;;;;;14.10;11.77;;;;;;;;;;5032573;28;20193;-83
2024/01/22 12:00:56;;;;;;;13.37;11.07;;;;;;;;;;5048913;28;20218;-81
2024/01/22 12:03:26;;;;;;;14.03;11.33;;;;;;;;;;5048794;28;20194;-84
2024/01/22 12:06:00;;;;;;;15.23;11.73;;;;;;;;;;5050753;28;20189;-80
2024/01/22 12:08:27;;;;;;;13.53;10.87;;;;;;;;;;5053909;28;20285;-84
2024/01/22 12:11:07;;;;;;;14.63;11.80;;;;;;;;;;5054231;28;20306;-84
2024/01/22 12:13:34;;;;;;;13.53;11.17;;;;;;;;;;5039492;28;20304;-82
2024/01/22 12:16:01;;;;;;;13.17;11.27;;;;;;;;;;5038715;28;20197;-82
2024/01/22 12:18:27;;;;;;;30.63;21.63;;;;;;;;;;5054187;28;20186;-82
2024/01/22 12:20:54;;;;;;;11.67;9.87;;;;;;;;;;5036808;28;20259;-83
2024/01/22 12:23:29;;;;;;;12.20;10.23;;;;;;;;;;5041716;28;20200;-83
2024/01/22 12:25:57;;;;;;;12.67;9.57;;;;;;;;;;5037518;28;20284;-83
2024/01/22 12:28:30;;;;;;;11.50;10.20;;;;;;;;;;5023535;28;20193;-84
2024/01/22 12:31:00;;;;;;;13.23;10.27;;;;;;;;;;5035475;28;20186;-84
2024/01/22 12:33:30;;;;;;;12.50;10.03;;;;;;;;;;5054544;28;20669;-83
2024/01/22 12:36:23;;;;;;;13.40;10.50;;;;;;;;;;5038317;28;20237;-84
2024/01/22 12:38:54;;;;;;;13.67;10.50;;;;;;;;;;5032565;28;20209;-84
2024/01/22 12:41:21;;;;;;;15.30;11.50;;;;;;;;;;5053645;28;20213;-81
2024/01/22 12:43:49;;;;;;;11.70;9.73;;;;;;;;;;5039074;28;21033;-81
2024/01/22 12:46:19;;;;;;;15.60;11.93;;;;;;;;;;5052244;28;20217;-81
2024/01/22 12:48:46;;;;;;;12.27;10.53;;;;;;;;;;5041956;28;20229;-80
2024/01/22 12:51:13;;;;;;;12.63;10.67;;;;;;;;;;5031956;28;20246;-80
2024/01/22 12:53:41;;;;;;;14.77;11.57;;;;;;;;;;5036234;28;20198;-80
2024/01/22 12:56:08;;;;;;;11.50;10.27;;;;;;;;;;5034059;28;20205;-82
2024/01/22 12:58:38;;;;;;;13.27;11.23;;;;;;;;;;5035283;28;20201;-79
2024/01/22 13:01:07;;;;;;;13.57;11.03;;;;;;;;;;5043479;28;20713;-80
2024/01/22 13:03:35;;;;;;;12.57;11.10;;;;;;;;;;5035618;28;20194;-80
2024/01/22 13:06:03;;;;;;;15.53;11.33;;;;;;;;;;5044770;28;20193;-79
2024/01/22 13:08:30;;;;;;;12.87;10.87;;;;;;;;;;5038194;28;20251;-83
2024/01/22 13:11:01;;;;;;;13.97;10.57;;;;;;;;;;5050553;28;20225;-79
2024/01/22 13:13:28;;;;;;;13.70;11.00;;;;;;;;;;5040607;28;20288;-82
2024/01/22 13:15:55;;;;;;;12.50;10.83;;;;;;;;;;5031743;28;20211;-80
2024/01/22 13:18:41;;;;;;;13.97;11.80;;;;;;;;;;5036814;28;20283;-81
2024/01/22 13:21:09;;;;;;;13.77;11.83;;;;;;;;;;5042112;28;20224;-82
2024/01/22 13:23:36;;;;;;;14.50;11.43;;;;;;;;;;5037928;28;20197;-80
2024/01/22 13:26:03;;;;;;;14.93;10.93;;;;;;;;;;5027544;28;20292;-81
2024/01/22 13:28:30;;;;;;;17.00;13.30;;;;;;;;;;5038502;28;20194;-83
2024/01/22 13:30:57;;;;;;;16.77;13.50;;;;;;;;;;5034832;28;20290;-79
2024/01/22 13:33:24;;;;;;;18.27;14.13;;;;;;;;;;5037451;28;20201;-83
2024/01/22 13:35:51;;;;;;;14.70;12.27;;;;;;;;;;5048762;28;20226;-80
2024/01/22 13:38:18;;;;;;;13.53;11.57;;;;;;;;;;5038933;28;20196;-82
2024/01/22 13:40:45;;;;;;;13.83;11.00;;;;;;;;;;5022443;28;20223;-81
2024/01/22 13:43:14;;;;;;;12.80;11.10;;;;;;;;;;5051776;28;20216;-83
2024/01/22 13:45:41;;;;;;;15.93;14.23;;;;;;;;;;5034514;28;20209;-80
2024/01/22 13:48:08;;;;;;;16.07;11.83;;;;;;;;;;5017824;28;20233;-80
2024/01/22 13:50:35;;;;;;;15.77;11.80;;;;;;;;;;5035297;28;20469;-80
2024/01/22 13:53:01;;;;;;;12.37;10.40;;;;;;;;;;5033790;28;20264;-79
2024/01/22 13:55:34;;;;;;;12.83;10.90;;;;;;;;;;5040790;28;20209;-81
2024/01/22 13:58:01;;;;;;;12.77;10.80;;;;;;;;;;5042997;28;20197;-82
2024/01/22 14:00:31;;;;;;;13.30;11.40;;;;;;;;;;5021470;28;20217;-79
2024/01/22 14:02:58;;;;;;;13.13;11.50;;;;;;;;;;5017669;28;20255;-81
2024/01/22 14:05:25;;;;;;;15.00;12.03;;;;;;;;;;5033411;28;20209;-79
2024/01/22 14:07:52;;;;;;;12.37;10.63;;;;;;;;;;5043642;28;20189;-80
2024/01/22 14:10:19;;;;;;;11.20;9.47;;;;;;;;;;5052318;28;20193;-83
2024/01/22 14:12:46;;;;;;;15.43;12.93;;;;;;;;;;5036350;28;20482;-82
2024/01/22 14:15:13;;;;;;;24.30;21.07;;;;;;;;;;5050948;28;20221;-83
2024/01/22 14:17:41;;;;;;;20.07;16.20;;;;;;;;;;5017692;28;20296;-81
2024/01/22 14:20:09;;;;;;;13.90;12.00;;;;;;;;;;5038447;28;20200;-82